createdAt,value
2023-02-19T00:00:06.321Z,64.62
2023-02-19T00:00:38.202Z,64.92
2023-02-19T00:01:16.852Z,64.92
2023-02-19T00:01:48.572Z,64.63
2023-02-19T00:02:20.272Z,64.72
2023-02-19T00:02:52.797Z,64.82
2023-02-19T00:03:24.549Z,64.87
2023-02-19T00:03:59.097Z,64.74
2023-02-19T00:04:30.759Z,64.97
2023-02-19T00:05:02.414Z,64.88
2023-02-19T00:05:35.318Z,65.15
2023-02-19T00:06:10.356Z,65.00
2023-02-19T00:06:43.878Z,65.02
2023-02-19T00:07:15.522Z,64.96
2023-02-19T00:07:47.166Z,64.84
2023-02-19T00:08:18.834Z,64.94
2023-02-19T00:08:50.996Z,65.20
2023-02-19T00:09:22.648Z,64.97
2023-02-19T00:09:54.276Z,64.83
2023-02-19T00:10:25.950Z,64.94
2023-02-19T00:11:05.473Z,65.42
2023-02-19T00:11:37.830Z,65.34
2023-02-19T00:12:09.680Z,65.26
2023-02-19T00:12:41.337Z,65.34
2023-02-19T00:13:13.212Z,65.38
2023-02-19T00:13:48.399Z,65.25
2023-02-19T00:14:21.397Z,65.19
2023-02-19T00:14:55.133Z,65.38
2023-02-19T00:15:26.788Z,65.30
2023-02-19T00:15:58.591Z,65.56
2023-02-19T00:16:33.525Z,65.56
2023-02-19T00:17:05.192Z,65.67
2023-02-19T00:17:36.815Z,65.73
2023-02-19T00:18:08.476Z,65.72
2023-02-19T00:18:40.791Z,65.86
2023-02-19T00:19:18.041Z,65.69
2023-02-19T00:19:49.712Z,65.61
2023-02-19T00:20:21.345Z,65.46
2023-02-19T00:20:56.428Z,65.79
2023-02-19T00:21:28.989Z,65.67
2023-02-19T00:22:00.622Z,65.62
2023-02-19T00:22:32.378Z,65.42
2023-02-19T00:23:04.119Z,65.52
2023-02-19T00:23:36.231Z,65.32
2023-02-19T00:24:10.555Z,65.31
2023-02-19T00:24:42.239Z,65.09
2023-02-19T00:25:13.908Z,64.79
2023-02-19T00:25:45.587Z,64.96
2023-02-19T00:26:18.752Z,64.91
2023-02-19T00:26:53.017Z,64.75
2023-02-19T00:27:24.725Z,64.57
2023-02-19T00:27:56.734Z,64.66
2023-02-19T00:28:28.368Z,64.37
2023-02-19T00:29:01.809Z,64.57
2023-02-19T00:29:33.451Z,64.53
2023-02-19T00:30:05.350Z,64.42
2023-02-19T00:30:37.012Z,64.27
2023-02-19T00:31:14.853Z,64.18
2023-02-19T00:31:47.498Z,64.20
2023-02-19T00:32:19.219Z,64.38
2023-02-19T00:32:51.757Z,64.36
2023-02-19T00:33:23.404Z,64.42
2023-02-19T00:33:57.747Z,64.21
2023-02-19T00:34:29.472Z,63.95
2023-02-19T00:35:01.101Z,64.32
2023-02-19T00:35:35.100Z,64.23
2023-02-19T00:36:07.187Z,64.06
2023-02-19T00:36:40.577Z,64.06
2023-02-19T00:37:12.179Z,64.00
2023-02-19T00:37:43.815Z,64.18
2023-02-19T00:38:15.452Z,63.89
2023-02-19T00:38:47.519Z,64.28
2023-02-19T00:39:19.253Z,63.90
2023-02-19T00:39:50.933Z,64.36
2023-02-19T00:40:22.869Z,64.29
2023-02-19T00:40:54.633Z,64.10
2023-02-19T00:41:26.687Z,64.20
2023-02-19T00:42:00.694Z,64.27
2023-02-19T00:42:32.314Z,64.15
2023-02-19T00:43:04.033Z,64.30
2023-02-19T00:43:35.652Z,64.19
2023-02-19T00:44:08.486Z,64.26
2023-02-19T00:44:40.157Z,64.33
2023-02-19T00:45:11.803Z,64.51
2023-02-19T00:45:43.454Z,64.62
2023-02-19T00:46:17.380Z,64.50
2023-02-19T00:46:49.078Z,64.81
2023-02-19T00:47:20.699Z,64.63
2023-02-19T00:47:52.904Z,64.93
2023-02-19T00:48:24.511Z,64.80
2023-02-19T00:48:57.148Z,64.91
2023-02-19T00:49:28.757Z,64.84
2023-02-19T00:50:00.512Z,64.97
2023-02-19T00:50:32.170Z,65.05
2023-02-19T00:51:03.908Z,64.91
2023-02-19T00:51:38.146Z,64.94
2023-02-19T00:52:09.811Z,65.11
2023-02-19T00:52:41.490Z,64.92
2023-02-19T00:53:13.120Z,64.98
2023-02-19T00:53:44.945Z,64.94
2023-02-19T00:54:17.347Z,65.16
2023-02-19T00:54:48.981Z,65.32
2023-02-19T00:55:20.672Z,65.16
2023-02-19T00:55:52.333Z,65.04
2023-02-19T00:56:24.430Z,65.10
2023-02-19T00:56:56.047Z,65.22
2023-02-19T00:57:27.975Z,65.49
2023-02-19T00:57:59.630Z,64.97
2023-02-19T00:58:31.393Z,64.93
2023-02-19T00:59:03.114Z,65.16
2023-02-19T00:59:36.881Z,65.14
2023-02-19T01:00:10.051Z,64.85
2023-02-19T01:00:41.682Z,64.85
2023-02-19T01:01:13.942Z,65.11
2023-02-19T01:01:45.919Z,65.05
2023-02-19T01:02:17.811Z,64.89
2023-02-19T01:02:49.426Z,65.13
2023-02-19T01:03:22.707Z,64.94
2023-02-19T01:03:54.343Z,64.82
2023-02-19T01:04:26.074Z,64.97
2023-02-19T01:04:57.789Z,64.70
2023-02-19T01:05:29.524Z,65.14
2023-02-19T01:06:02.410Z,65.16
2023-02-19T01:06:34.738Z,65.08
2023-02-19T01:07:07.047Z,65.05
2023-02-19T01:07:39.820Z,65.05
2023-02-19T01:08:11.488Z,65.19
2023-02-19T01:08:43.771Z,65.02
2023-02-19T01:09:15.454Z,65.19
2023-02-19T01:09:47.079Z,65.42
2023-02-19T01:10:18.790Z,65.23
2023-02-19T01:10:50.567Z,65.58
2023-02-19T01:11:22.193Z,65.45
2023-02-19T01:11:53.801Z,65.24
2023-02-19T01:12:25.765Z,65.68
2023-02-19T01:12:57.408Z,65.29
2023-02-19T01:13:29.124Z,65.68
2023-02-19T01:14:01.647Z,65.57
2023-02-19T01:14:33.791Z,65.31
2023-02-19T01:15:05.624Z,65.80
2023-02-19T01:15:37.306Z,65.40
2023-02-19T01:16:18.938Z,65.45
2023-02-19T01:16:50.610Z,65.62
2023-02-19T01:17:22.281Z,65.77
2023-02-19T01:17:53.923Z,65.55
2023-02-19T01:18:25.540Z,65.61
2023-02-19T01:18:57.825Z,65.82
2023-02-19T01:19:29.574Z,65.77
2023-02-19T01:20:01.211Z,65.62
2023-02-19T01:20:32.939Z,65.35
2023-02-19T01:21:10.701Z,65.63
2023-02-19T01:21:42.547Z,65.58
2023-02-19T01:22:14.232Z,65.85
2023-02-19T01:22:45.895Z,65.67
2023-02-19T01:23:17.525Z,65.65
2023-02-19T01:23:51.050Z,65.87
2023-02-19T01:24:22.718Z,65.88
2023-02-19T01:24:54.360Z,66.08
2023-02-19T01:25:26.137Z,65.89
2023-02-19T01:25:57.804Z,65.85
2023-02-19T01:26:32.140Z,66.19
2023-02-19T01:27:03.806Z,65.93
2023-02-19T01:27:35.416Z,66.03
2023-02-19T01:28:07.417Z,66.02
2023-02-19T01:28:39.280Z,66.20
2023-02-19T01:29:10.943Z,66.11
2023-02-19T01:29:42.813Z,66.26
2023-02-19T01:30:14.769Z,66.54
2023-02-19T01:30:46.416Z,66.73
2023-02-19T01:31:23.189Z,66.55
2023-02-19T01:31:55.006Z,66.75
2023-02-19T01:32:26.704Z,66.67
2023-02-19T01:32:58.360Z,66.65
2023-02-19T01:33:30.705Z,66.83
2023-02-19T01:34:04.188Z,66.70
2023-02-19T01:34:35.872Z,66.39
2023-02-19T01:35:07.707Z,66.89
2023-02-19T01:35:40.149Z,66.58
2023-02-19T01:36:11.814Z,66.78
2023-02-19T01:36:43.460Z,66.79
2023-02-19T01:37:15.087Z,67.00
2023-02-19T01:37:46.713Z,66.66
2023-02-19T01:38:18.356Z,66.67
2023-02-19T01:38:50.043Z,66.74
2023-02-19T01:39:21.738Z,66.91
2023-02-19T01:39:53.404Z,66.84
2023-02-19T01:40:25.769Z,66.80
2023-02-19T01:41:00.218Z,66.92
2023-02-19T01:41:34.482Z,66.77
2023-02-19T01:42:17.006Z,67.00
2023-02-19T01:42:48.848Z,66.56
2023-02-19T01:43:20.464Z,66.60
2023-02-19T01:44:04.159Z,66.58
2023-02-19T01:44:35.743Z,66.67
2023-02-19T01:45:25.507Z,66.82
2023-02-19T01:45:57.188Z,66.90
2023-02-19T01:46:33.532Z,67.24
2023-02-19T01:47:05.245Z,67.20
2023-02-19T01:47:36.936Z,67.35
2023-02-19T01:48:17.558Z,67.46
2023-02-19T01:48:49.197Z,67.12
2023-02-19T01:49:29.455Z,67.47
2023-02-19T01:50:01.116Z,67.53
2023-02-19T01:50:38.786Z,67.62
2023-02-19T01:51:16.302Z,67.49
2023-02-19T01:51:57.878Z,67.38
2023-02-19T01:52:34.374Z,67.44
2023-02-19T01:53:11.172Z,67.44
2023-02-19T01:53:47.580Z,67.55
2023-02-19T01:54:22.804Z,67.71
2023-02-19T01:54:55.994Z,67.88
2023-02-19T01:55:27.659Z,67.86
2023-02-19T01:56:02.654Z,68.13
2023-02-19T01:56:38.405Z,68.21
2023-02-19T01:57:19.374Z,68.53
2023-02-19T01:57:55.334Z,68.12
2023-02-19T01:58:32.285Z,68.18
2023-02-19T01:59:05.764Z,68.81
2023-02-19T01:59:38.331Z,68.68
2023-02-19T02:00:14.211Z,68.65
2023-02-19T02:00:45.949Z,68.78
2023-02-19T02:01:17.605Z,69.16
2023-02-19T02:01:49.792Z,68.82
2023-02-19T02:02:25.070Z,69.11
2023-02-19T02:02:58.767Z,68.84
2023-02-19T02:03:31.385Z,69.20
2023-02-19T02:04:05.974Z,69.20
2023-02-19T02:04:38.000Z,69.18
2023-02-19T02:05:37.494Z,69.39
2023-02-19T02:06:21.475Z,69.18
2023-02-19T02:06:56.346Z,69.48
2023-02-19T02:07:46.514Z,69.47
2023-02-19T02:08:37.400Z,69.78
2023-02-19T02:09:28.263Z,69.56
2023-02-19T02:10:18.676Z,69.38
2023-02-19T02:10:51.177Z,69.52
2023-02-19T02:11:23.346Z,69.93
2023-02-19T02:11:55.015Z,69.91
2023-02-19T02:12:26.668Z,69.64
2023-02-19T02:12:58.953Z,69.71
2023-02-19T02:13:34.337Z,69.63
2023-02-19T02:14:06.158Z,69.77
2023-02-19T02:14:41.628Z,70.09
2023-02-19T02:15:15.288Z,69.72
2023-02-19T02:16:42.220Z,69.55
2023-02-19T02:17:34.170Z,69.83
2023-02-19T02:18:28.579Z,70.23
2023-02-19T02:19:00.221Z,70.23
2023-02-19T02:19:53.208Z,69.65
2023-02-19T02:20:52.331Z,70.12
2023-02-19T02:21:45.846Z,70.18
2023-02-19T02:22:26.677Z,70.19
2023-02-19T02:23:22.807Z,70.24
2023-02-19T02:24:05.791Z,70.31
2023-02-19T02:25:07.654Z,70.27
2023-02-19T02:25:39.432Z,70.61
2023-02-19T02:26:44.176Z,70.58
2023-02-19T02:27:40.899Z,71.04
2023-02-19T02:28:28.484Z,71.22
2023-02-19T02:29:29.866Z,71.07
2023-02-19T02:30:32.707Z,71.16
2023-02-19T02:31:15.129Z,71.42
2023-02-19T02:31:59.659Z,71.00
2023-02-19T02:32:56.796Z,70.67
2023-02-19T02:33:47.836Z,70.97
2023-02-19T02:34:27.458Z,71.12
2023-02-19T02:35:05.733Z,71.10
2023-02-19T02:35:54.359Z,71.32
2023-02-19T02:36:37.622Z,71.33
2023-02-19T02:37:11.084Z,71.21
2023-02-19T02:37:45.674Z,71.39
2023-02-19T02:38:20.557Z,71.25
2023-02-19T02:38:54.289Z,71.30
2023-02-19T02:39:29.460Z,70.62
2023-02-19T02:40:03.823Z,70.65
2023-02-19T02:40:37.381Z,70.82
2023-02-19T02:41:09.634Z,70.66
2023-02-19T02:41:44.446Z,70.48
2023-02-19T02:42:28.334Z,70.60
2023-02-19T02:43:00.795Z,70.52
2023-02-19T02:43:33.251Z,70.66
2023-02-19T02:44:05.111Z,70.47
2023-02-19T02:44:37.771Z,70.50
2023-02-19T02:45:36.032Z,70.64
2023-02-19T02:46:12.869Z,70.41
2023-02-19T02:46:46.558Z,70.68
2023-02-19T02:47:37.203Z,70.58
2023-02-19T02:48:14.604Z,70.68
2023-02-19T02:48:54.046Z,70.35
2023-02-19T02:49:26.897Z,70.23
2023-02-19T02:50:06.192Z,70.16
2023-02-19T02:51:07.206Z,70.54
2023-02-19T02:51:43.510Z,70.58
2023-02-19T02:52:35.547Z,70.16
2023-02-19T02:53:34.504Z,70.38
2023-02-19T02:54:37.325Z,70.40
2023-02-19T02:55:11.809Z,70.63
2023-02-19T02:55:49.829Z,70.30
2023-02-19T02:56:25.040Z,70.32
2023-02-19T02:56:57.614Z,70.49
2023-02-19T02:57:29.323Z,69.93
2023-02-19T02:58:01.938Z,70.24
2023-02-19T02:58:34.661Z,70.22
2023-02-19T02:59:10.078Z,70.03
2023-02-19T02:59:43.267Z,69.94
2023-02-19T03:00:15.950Z,70.31
2023-02-19T03:01:14.890Z,70.09
2023-02-19T03:02:08.071Z,70.00
2023-02-19T03:02:42.542Z,69.83
2023-02-19T03:03:20.000Z,69.74
2023-02-19T03:03:58.730Z,70.05
2023-02-19T03:05:15.547Z,70.20
2023-02-19T03:05:53.275Z,70.03
2023-02-19T03:06:31.489Z,70.06
2023-02-19T03:07:09.510Z,69.98
2023-02-19T03:07:54.283Z,69.98
2023-02-19T03:08:31.664Z,70.09
2023-02-19T03:09:16.121Z,70.32
2023-02-19T03:09:49.627Z,70.24
2023-02-19T03:10:29.394Z,70.53
2023-02-19T03:11:26.726Z,70.56
2023-02-19T03:12:22.343Z,70.63
2023-02-19T03:13:17.857Z,70.54
2023-02-19T03:14:17.250Z,70.81
2023-02-19T03:15:15.081Z,70.56
2023-02-19T03:16:16.636Z,71.14
2023-02-19T03:17:09.382Z,70.76
2023-02-19T03:18:12.642Z,70.95
2023-02-19T03:19:07.351Z,71.16
2023-02-19T03:19:46.265Z,71.49
2023-02-19T03:20:22.957Z,71.35
2023-02-19T03:20:57.959Z,71.40
2023-02-19T03:21:29.621Z,71.75
2023-02-19T03:22:16.672Z,71.81
2023-02-19T03:22:52.127Z,72.02
2023-02-19T03:23:48.767Z,72.00
2023-02-19T03:24:45.534Z,71.94
2023-02-19T03:25:40.731Z,72.02
2023-02-19T03:26:14.261Z,72.06
2023-02-19T03:26:53.880Z,72.25
2023-02-19T03:27:30.528Z,72.16
2023-02-19T03:28:05.446Z,72.41
2023-02-19T03:28:59.052Z,72.39
2023-02-19T03:29:36.440Z,72.72
2023-02-19T03:30:15.631Z,72.41
2023-02-19T03:30:53.816Z,72.58
2023-02-19T03:31:30.089Z,72.50
2023-02-19T03:32:08.786Z,72.45
2023-02-19T03:32:48.264Z,72.63
2023-02-19T03:33:28.666Z,72.41
2023-02-19T03:34:06.904Z,72.33
2023-02-19T03:34:44.468Z,72.83
2023-02-19T03:35:24.760Z,72.53
2023-02-19T03:36:02.322Z,72.88
2023-02-19T03:36:40.889Z,73.09
2023-02-19T03:37:17.369Z,72.91
2023-02-19T03:38:03.831Z,72.72
2023-02-19T03:38:57.408Z,72.85
2023-02-19T03:39:29.309Z,73.07
2023-02-19T03:40:01.145Z,73.03
2023-02-19T03:40:44.007Z,73.23
2023-02-19T03:41:33.343Z,73.11
2023-02-19T03:42:34.912Z,73.43
2023-02-19T03:43:14.990Z,73.26
2023-02-19T03:44:02.164Z,73.48
2023-02-19T03:44:42.918Z,73.25
2023-02-19T03:45:33.293Z,73.33
2023-02-19T03:46:23.551Z,73.15
2023-02-19T03:47:10.159Z,72.94
2023-02-19T03:47:45.515Z,73.06
2023-02-19T03:48:25.176Z,73.04
2023-02-19T03:49:05.929Z,73.13
2023-02-19T03:49:48.850Z,72.98
2023-02-19T03:50:44.560Z,72.95
2023-02-19T03:51:20.791Z,73.17
2023-02-19T03:52:10.566Z,73.50
2023-02-19T03:53:03.780Z,73.17
2023-02-19T03:54:03.556Z,73.26
2023-02-19T03:54:43.945Z,73.09
2023-02-19T03:55:59.045Z,73.26
2023-02-19T03:56:53.926Z,73.75
2023-02-19T03:57:32.171Z,73.41
2023-02-19T03:58:24.569Z,73.62
2023-02-19T03:58:59.158Z,73.09
2023-02-19T03:59:42.543Z,73.53
2023-02-19T04:00:17.960Z,73.15
2023-02-19T04:00:58.514Z,73.76
2023-02-19T04:02:00.813Z,73.31
2023-02-19T04:02:39.520Z,73.39
2023-02-19T04:03:35.294Z,73.52
2023-02-19T04:04:19.005Z,73.22
2023-02-19T04:05:01.875Z,73.45
2023-02-19T04:05:39.119Z,73.38
2023-02-19T04:06:16.871Z,73.48
2023-02-19T04:06:54.536Z,73.52
2023-02-19T04:07:28.994Z,73.48
2023-02-19T04:08:11.119Z,73.46
2023-02-19T04:08:49.499Z,73.44
2023-02-19T04:09:23.387Z,73.65
2023-02-19T04:09:55.765Z,73.57
2023-02-19T04:10:29.613Z,73.54
2023-02-19T04:11:02.284Z,73.48
2023-02-19T04:11:33.995Z,73.64
2023-02-19T04:12:07.812Z,73.69
2023-02-19T04:12:45.974Z,73.77
2023-02-19T04:13:26.957Z,73.59
2023-02-19T04:14:18.015Z,73.64
2023-02-19T04:15:00.102Z,73.91
2023-02-19T04:15:34.392Z,73.80
2023-02-19T04:16:15.686Z,73.82
2023-02-19T04:16:55.711Z,74.01
2023-02-19T04:17:46.207Z,74.04
2023-02-19T04:18:30.688Z,73.95
2023-02-19T04:19:16.048Z,74.13
2023-02-19T04:19:51.594Z,73.96
2023-02-19T04:20:27.658Z,74.00
2023-02-19T04:21:00.823Z,74.10
2023-02-19T04:21:35.082Z,73.91
2023-02-19T04:22:09.744Z,74.07
2023-02-19T04:22:42.324Z,74.31
2023-02-19T04:23:20.046Z,74.31
2023-02-19T04:23:52.237Z,74.58
2023-02-19T04:24:34.852Z,74.18
2023-02-19T04:25:07.938Z,74.58
2023-02-19T04:25:45.212Z,74.72
2023-02-19T04:26:19.938Z,74.70
2023-02-19T04:26:53.063Z,74.66
2023-02-19T04:27:24.705Z,74.73
2023-02-19T04:27:56.489Z,74.50
2023-02-19T04:28:29.236Z,74.43
2023-02-19T04:29:01.899Z,74.34
2023-02-19T04:29:33.553Z,74.25
2023-02-19T04:30:07.499Z,74.25
2023-02-19T04:30:39.413Z,74.24
2023-02-19T04:31:11.703Z,74.37
2023-02-19T04:31:43.709Z,74.11
2023-02-19T04:32:15.408Z,73.93
2023-02-19T04:32:47.045Z,73.95
2023-02-19T04:33:18.766Z,74.00
2023-02-19T04:33:50.444Z,74.18
2023-02-19T04:34:22.139Z,74.17
2023-02-19T04:34:54.377Z,74.52
2023-02-19T04:35:26.149Z,74.66
2023-02-19T04:35:57.764Z,74.45
2023-02-19T04:36:30.853Z,74.37
2023-02-19T04:37:02.916Z,74.40
2023-02-19T04:37:34.552Z,74.14
2023-02-19T04:38:06.333Z,73.74
2023-02-19T04:38:38.361Z,74.57
2023-02-19T04:39:10.021Z,74.62
2023-02-19T04:39:41.649Z,74.45
2023-02-19T04:40:13.288Z,74.64
2023-02-19T04:40:44.981Z,74.34
2023-02-19T04:41:16.880Z,74.61
2023-02-19T04:41:48.597Z,74.53
2023-02-19T04:42:20.234Z,74.32
2023-02-19T04:42:51.952Z,74.33
2023-02-19T04:43:23.642Z,74.32
2023-02-19T04:43:55.318Z,74.15
2023-02-19T04:44:27.009Z,74.14
2023-02-19T04:44:58.708Z,74.29
2023-02-19T04:45:30.449Z,74.49
2023-02-19T04:46:02.691Z,74.47
2023-02-19T04:46:34.444Z,74.22
2023-02-19T04:47:08.689Z,74.17
2023-02-19T04:47:40.366Z,73.55
2023-02-19T04:48:12.076Z,74.05
2023-02-19T04:48:44.416Z,73.66
2023-02-19T04:49:16.206Z,73.69
2023-02-19T04:49:47.853Z,73.68
2023-02-19T04:50:19.576Z,74.10
2023-02-19T04:50:51.239Z,73.65
2023-02-19T04:51:22.915Z,73.95
2023-02-19T04:51:54.528Z,73.85
2023-02-19T04:52:26.233Z,73.56
2023-02-19T04:52:57.907Z,73.78
2023-02-19T04:53:29.555Z,73.80
2023-02-19T04:54:01.235Z,74.02
2023-02-19T04:54:32.874Z,74.09
2023-02-19T04:55:04.897Z,73.94
2023-02-19T04:55:38.094Z,73.83
2023-02-19T04:56:12.977Z,73.48
2023-02-19T04:56:44.629Z,73.38
2023-02-19T04:57:16.264Z,73.26
2023-02-19T04:57:48.090Z,73.96
2023-02-19T04:58:20.441Z,73.82
2023-02-19T04:58:52.228Z,73.55
2023-02-19T04:59:23.868Z,73.76
2023-02-19T04:59:55.511Z,73.58
2023-02-19T05:00:27.187Z,73.75
2023-02-19T05:00:58.823Z,73.28
2023-02-19T05:01:30.564Z,73.32
2023-02-19T05:02:02.249Z,73.20
2023-02-19T05:02:34.077Z,73.49
2023-02-19T05:03:05.780Z,73.37
2023-02-19T05:03:38.036Z,73.31
2023-02-19T05:04:09.720Z,73.33
2023-02-19T05:04:41.630Z,73.25
2023-02-19T05:05:13.334Z,73.08
2023-02-19T05:05:44.982Z,72.87
2023-02-19T05:06:17.023Z,73.09
2023-02-19T05:06:48.715Z,73.22
2023-02-19T05:07:20.376Z,73.09
2023-02-19T05:07:52.117Z,72.91
2023-02-19T05:08:23.821Z,72.76
2023-02-19T05:08:55.461Z,72.95
2023-02-19T05:09:27.096Z,72.92
2023-02-19T05:09:59.776Z,73.14
2023-02-19T05:10:31.473Z,72.85
2023-02-19T05:11:05.426Z,73.34
2023-02-19T05:11:37.156Z,73.04
2023-02-19T05:12:08.805Z,73.38
2023-02-19T05:12:40.452Z,73.40
2023-02-19T05:13:12.298Z,73.74
2023-02-19T05:13:43.959Z,73.95
2023-02-19T05:14:17.181Z,74.00
2023-02-19T05:14:49.225Z,74.66
2023-02-19T05:15:20.845Z,74.63
2023-02-19T05:16:00.630Z,74.66
2023-02-19T05:16:33.259Z,74.49
2023-02-19T05:17:04.931Z,74.50
2023-02-19T05:17:36.589Z,74.53
2023-02-19T05:18:08.244Z,74.76
2023-02-19T05:18:40.699Z,74.70
2023-02-19T05:19:12.902Z,74.47
2023-02-19T05:19:45.482Z,74.59
2023-02-19T05:20:17.315Z,74.65
2023-02-19T05:20:50.346Z,74.72
2023-02-19T05:21:22.039Z,74.68
2023-02-19T05:21:53.729Z,74.60
2023-02-19T05:22:25.699Z,74.46
2023-02-19T05:22:57.320Z,74.52
2023-02-19T05:23:29.116Z,74.37
2023-02-19T05:24:00.759Z,76.44
2023-02-19T05:24:32.449Z,75.26
2023-02-19T05:25:04.465Z,74.84
2023-02-19T05:25:36.097Z,74.81
2023-02-19T05:26:11.847Z,75.08
2023-02-19T05:26:45.350Z,74.66
2023-02-19T05:27:17.147Z,74.83
2023-02-19T05:27:48.810Z,75.89
2023-02-19T05:28:21.088Z,74.70
2023-02-19T05:28:53.782Z,74.53
2023-02-19T05:29:25.486Z,74.58
2023-02-19T05:29:57.115Z,74.73
2023-02-19T05:30:28.823Z,74.66
2023-02-19T05:31:06.659Z,74.64
2023-02-19T05:31:38.451Z,74.51
2023-02-19T05:32:10.507Z,75.15
2023-02-19T05:32:42.190Z,75.53
2023-02-19T05:33:14.706Z,75.59
2023-02-19T05:33:51.048Z,75.62
2023-02-19T05:34:22.945Z,75.78
2023-02-19T05:34:54.629Z,75.41
2023-02-19T05:35:26.312Z,75.72
2023-02-19T05:35:58.013Z,75.61
2023-02-19T05:36:29.975Z,75.68
2023-02-19T05:37:01.647Z,75.47
2023-02-19T05:37:33.284Z,75.62
2023-02-19T05:38:05.932Z,75.63
2023-02-19T05:38:39.137Z,75.65
2023-02-19T05:39:12.269Z,75.67
2023-02-19T05:39:43.885Z,75.62
2023-02-19T05:40:15.584Z,75.82
2023-02-19T05:40:47.566Z,75.92
2023-02-19T05:41:22.233Z,75.95
2023-02-19T05:41:53.849Z,76.17
2023-02-19T05:42:25.524Z,76.07
2023-02-19T05:42:57.178Z,76.07
2023-02-19T05:43:28.814Z,76.15
2023-02-19T05:44:00.852Z,75.76
2023-02-19T05:44:32.481Z,76.15
2023-02-19T05:45:04.411Z,76.11
2023-02-19T05:45:36.441Z,76.13
2023-02-19T05:46:09.355Z,75.81
2023-02-19T05:46:41.068Z,76.04
2023-02-19T05:47:12.747Z,76.20
2023-02-19T05:47:44.373Z,76.59
2023-02-19T05:48:16.005Z,76.42
2023-02-19T05:48:48.700Z,76.20
2023-02-19T05:49:20.346Z,76.47
2023-02-19T05:49:52.000Z,76.39
2023-02-19T05:50:24.022Z,76.41
2023-02-19T05:51:02.117Z,76.56
2023-02-19T05:51:33.969Z,77.32
2023-02-19T05:52:05.616Z,80.24
2023-02-19T05:52:37.283Z,78.38
2023-02-19T05:53:09.681Z,78.71
2023-02-19T05:53:43.014Z,78.59
2023-02-19T05:54:14.699Z,77.44
2023-02-19T05:54:46.328Z,79.01
2023-02-19T05:55:18.088Z,79.20
2023-02-19T05:55:49.704Z,77.49
2023-02-19T05:56:34.877Z,76.82
2023-02-19T05:57:06.575Z,76.54
2023-02-19T05:57:43.626Z,76.55
2023-02-19T05:58:15.506Z,76.68
2023-02-19T05:58:47.224Z,79.53
2023-02-19T05:59:24.502Z,79.13
2023-02-19T05:59:56.864Z,79.34
2023-02-19T06:00:28.626Z,82.80
2023-02-19T06:01:00.267Z,79.68
2023-02-19T06:01:32.191Z,78.84
2023-02-19T06:02:03.859Z,79.92
2023-02-19T06:02:36.765Z,77.88
2023-02-19T06:03:08.432Z,77.19
2023-02-19T06:03:40.103Z,77.28
2023-02-19T06:04:12.899Z,76.81
2023-02-19T06:04:44.540Z,76.69
2023-02-19T06:05:16.291Z,76.30
2023-02-19T06:05:48.452Z,76.62
2023-02-19T06:06:21.139Z,76.78
2023-02-19T06:06:52.782Z,76.56
2023-02-19T06:07:24.455Z,76.74
2023-02-19T06:07:56.162Z,76.52
2023-02-19T06:08:28.198Z,76.40
2023-02-19T06:08:59.831Z,76.66
2023-02-19T06:09:32.377Z,76.79
2023-02-19T06:10:04.189Z,76.86
2023-02-19T06:10:37.252Z,76.86
2023-02-19T06:11:09.783Z,77.16
2023-02-19T06:11:43.395Z,77.19
2023-02-19T06:12:15.057Z,76.79
2023-02-19T06:12:46.692Z,76.77
2023-02-19T06:13:18.461Z,76.73
2023-02-19T06:13:50.641Z,76.80
2023-02-19T06:14:22.313Z,76.84
2023-02-19T06:14:54.032Z,79.36
2023-02-19T06:15:25.733Z,81.16
2023-02-19T06:15:57.438Z,79.50
2023-02-19T06:16:29.377Z,77.73
2023-02-19T06:17:01.078Z,78.09
2023-02-19T06:17:34.108Z,81.52
2023-02-19T06:18:05.780Z,79.81
2023-02-19T06:18:39.157Z,78.01
2023-02-19T06:19:10.874Z,85.31
2023-02-19T06:19:42.960Z,87.05
2023-02-19T06:20:14.746Z,90.48
2023-02-19T06:20:46.400Z,91.20
2023-02-19T06:21:18.557Z,91.85
2023-02-19T06:21:50.988Z,92.61
2023-02-19T06:22:22.634Z,92.70
2023-02-19T06:22:54.459Z,87.70
2023-02-19T06:23:28.408Z,79.80
2023-02-19T06:24:05.124Z,78.51
2023-02-19T06:24:37.688Z,76.01
2023-02-19T06:25:12.575Z,80.49
2023-02-19T06:25:44.224Z,78.27
2023-02-19T06:26:20.748Z,76.27
2023-02-19T06:26:52.373Z,75.07
2023-02-19T06:27:24.110Z,75.11
2023-02-19T06:27:55.812Z,76.08
2023-02-19T06:28:27.436Z,76.00
2023-02-19T06:28:59.167Z,85.38
2023-02-19T06:29:32.548Z,89.12
2023-02-19T06:30:04.400Z,89.22
2023-02-19T06:30:36.771Z,84.46
2023-02-19T06:31:10.418Z,77.85
2023-02-19T06:31:42.546Z,81.63
2023-02-19T06:32:14.362Z,85.04
2023-02-19T06:32:46.066Z,85.19
2023-02-19T06:33:17.712Z,85.08
2023-02-19T06:33:50.705Z,82.75
2023-02-19T06:34:22.551Z,86.29
2023-02-19T06:34:54.267Z,86.01
2023-02-19T06:35:25.965Z,84.40
2023-02-19T06:36:00.112Z,83.68
2023-02-19T06:36:31.802Z,84.24
2023-02-19T06:37:03.526Z,81.28
2023-02-19T06:37:35.170Z,79.83
2023-02-19T06:38:06.833Z,81.30
2023-02-19T06:38:38.723Z,80.29
2023-02-19T06:39:10.697Z,79.03
2023-02-19T06:39:43.713Z,76.44
2023-02-19T06:40:16.229Z,71.65
2023-02-19T06:40:47.841Z,77.97
2023-02-19T06:41:19.704Z,75.29
2023-02-19T06:41:51.792Z,73.93
2023-02-19T06:42:23.484Z,71.75
2023-02-19T06:42:55.309Z,69.19
2023-02-19T06:43:26.953Z,66.27
2023-02-19T06:43:58.801Z,66.62
2023-02-19T06:44:30.448Z,67.49
2023-02-19T06:45:02.108Z,67.61
2023-02-19T06:45:33.875Z,68.34
2023-02-19T06:46:07.844Z,67.73
2023-02-19T06:46:39.683Z,68.29
2023-02-19T06:47:11.354Z,69.01
2023-02-19T06:47:43.050Z,68.20
2023-02-19T06:48:14.686Z,68.67
2023-02-19T06:48:46.389Z,69.38
2023-02-19T06:49:18.152Z,70.01
2023-02-19T06:49:49.774Z,70.47
2023-02-19T06:50:21.450Z,70.81
2023-02-19T06:50:53.433Z,70.85
2023-02-19T06:51:27.222Z,71.02
2023-02-19T06:52:00.557Z,71.05
2023-02-19T06:52:32.222Z,71.25
2023-02-19T06:53:03.955Z,71.42
2023-02-19T06:53:35.566Z,71.54
2023-02-19T06:54:07.539Z,71.69
2023-02-19T06:54:39.177Z,72.37
2023-02-19T06:55:10.875Z,72.88
2023-02-19T06:55:42.545Z,73.35
2023-02-19T06:56:28.133Z,73.40
2023-02-19T06:57:00.380Z,74.06
2023-02-19T06:57:31.992Z,74.01
2023-02-19T06:58:03.637Z,74.47
2023-02-19T06:58:35.565Z,74.72
2023-02-19T06:59:10.656Z,74.73
2023-02-19T06:59:42.317Z,74.72
2023-02-19T07:00:14.312Z,74.90
2023-02-19T07:00:45.985Z,74.83
2023-02-19T07:01:17.863Z,75.33
2023-02-19T07:01:49.526Z,74.96
2023-02-19T07:02:21.173Z,75.39
2023-02-19T07:02:56.614Z,74.96
2023-02-19T07:03:28.355Z,75.33
2023-02-19T07:04:00.138Z,75.44
2023-02-19T07:04:32.037Z,75.06
2023-02-19T07:05:03.871Z,75.19
2023-02-19T07:05:35.542Z,75.48
2023-02-19T07:06:07.496Z,75.41
2023-02-19T07:06:39.284Z,75.81
2023-02-19T07:07:12.256Z,75.38
2023-02-19T07:07:46.156Z,75.46
2023-02-19T07:08:18.270Z,75.65
2023-02-19T07:08:50.993Z,75.84
2023-02-19T07:09:23.371Z,76.05
2023-02-19T07:09:55.018Z,76.43
2023-02-19T07:10:26.656Z,76.38
2023-02-19T07:10:59.153Z,76.46
2023-02-19T07:11:33.883Z,76.46
2023-02-19T07:12:05.954Z,76.39
2023-02-19T07:12:37.592Z,76.41
2023-02-19T07:13:09.261Z,76.41
2023-02-19T07:13:40.953Z,76.42
2023-02-19T07:14:16.303Z,76.75
2023-02-19T07:14:48.308Z,76.44
2023-02-19T07:15:19.980Z,76.92
2023-02-19T07:15:52.269Z,76.59
2023-02-19T07:16:24.968Z,76.95
2023-02-19T07:16:56.661Z,77.29
2023-02-19T07:17:28.283Z,77.45
2023-02-19T07:18:00.055Z,77.56
2023-02-19T07:18:32.218Z,77.66
2023-02-19T07:19:03.996Z,77.27
2023-02-19T07:19:35.632Z,77.92
2023-02-19T07:20:07.385Z,77.63
2023-02-19T07:20:39.057Z,77.62
2023-02-19T07:21:13.504Z,77.99
2023-02-19T07:21:45.249Z,77.89
2023-02-19T07:22:16.895Z,77.99
2023-02-19T07:22:48.532Z,77.89
2023-02-19T07:23:20.368Z,78.16
2023-02-19T07:23:52.681Z,78.21
2023-02-19T07:24:24.341Z,78.29
2023-02-19T07:24:55.990Z,78.17
2023-02-19T07:25:27.608Z,77.03
2023-02-19T07:25:59.804Z,76.95
2023-02-19T07:26:31.567Z,76.85
2023-02-19T07:27:03.268Z,76.53
2023-02-19T07:27:34.902Z,76.20
2023-02-19T07:28:07.413Z,75.78
2023-02-19T07:28:41.334Z,75.32
2023-02-19T07:29:12.973Z,74.53
2023-02-19T07:29:44.633Z,73.96
2023-02-19T07:30:16.355Z,73.75
2023-02-19T07:30:48.051Z,73.46
2023-02-19T07:31:22.719Z,73.76
2023-02-19T07:31:54.469Z,73.67
2023-02-19T07:32:26.164Z,73.53
2023-02-19T07:32:57.792Z,74.29